首页
METAR-TAF:

METAR-TAF

机场 :

安圭拉, 安圭拉

纬度: 18-12-17N, 经度: 063-03-18W, 海拔: 31米

当前天气观测

该预报发布于17分钟前的21:00 UTC
风速11节,风向南转南东
温度 28°C
湿度 94%
气压 1014 hPa
能见度10公里或以上
少量云层高于1600英尺
多云层高于3100英尺

METAR: TQPF 262100Z 15011KT 9999 FEW016 BKN031 28/27 Q1014

时间: 17:17 (21:17 UTC)

预报

该预报发布于4小时和17分钟前的17:00 UTC
预报有效从26日的 18点(UTC)到 27日的 18点(UTC)
风速12节,风向东转东南
能见度10公里或以上
散云层高于1700英尺
散云层高于3800英尺
几率 40% :
短暂存在
从 26日的 18点(UTC)到 27日的 04点(UTC)
能見度: 4000
少量云层高于1200英尺, 积雨云.
多云层高于1400英尺
阵雨,

TAF: TQPF 261700Z 2618/2718 12012KT 9999 SCT017 SCT038 PROB40 TEMPO 2618/2704 4000 SHRA FEW012CB BKN014

超过4000个机场的气象观测和天气预报(METAR&TAF报告)。

可查询的气象台以黄色和红色小点在地图上表示。

将鼠标移到小点上方,可查看气象台名称。

然后点击查看天气观测和预报。

如需切换地图:点击带黑十字的绿色按钮放大地图;点击带横线的绿色按钮缩小地图;或者点击绿色箭头查看邻近地区的地图。


METAR-TAF: